Time;durP1;ratioP1;P1;durP2;ratioP2;P2;SDS_P1;SDS_P2;PMS_P1;PMS_P2;Temp;Humidity;BMP_temperature;BMP_pressure;BME280_temperature;BME280_humidity;BME280_pressure;Samples;Min_cycle;Max_cycle;Signal;HPM_P1;HPM_P2
2023/06/18 00:02:24;;;;;;;15.20;11.88;;;;;;;;;;5095487;28;20103;-71
2023/06/18 00:04:50;;;;;;;15.90;11.85;;;;;;;;;;5095311;28;20032;-70
2023/06/18 00:07:15;;;;;;;17.05;11.23;;;;;;;;;;5095600;28;20529;-72
2023/06/18 00:09:41;;;;;;;13.20;11.80;;;;;;;;;;5095567;28;20134;-71
2023/06/18 00:12:06;;;;;;;14.85;12.00;;;;;;;;;;5095299;28;20028;-68
2023/06/18 00:14:32;;;;;;;16.20;12.43;;;;;;;;;;5102015;28;20111;-74
2023/06/18 00:16:57;;;;;;;13.95;12.23;;;;;;;;;;5097427;28;20054;-73
2023/06/18 00:19:23;;;;;;;17.02;13.15;;;;;;;;;;5096725;28;20495;-70
2023/06/18 00:21:48;;;;;;;14.18;12.32;;;;;;;;;;5095699;28;20121;-70
2023/06/18 00:24:14;;;;;;;16.92;12.60;;;;;;;;;;5078945;28;20028;-68
2023/06/18 00:26:40;;;;;;;15.88;12.57;;;;;;;;;;5094479;28;20034;-74
2023/06/18 00:29:06;;;;;;;14.82;12.20;;;;;;;;;;5094418;28;20091;-73
2023/06/18 00:31:34;;;;;;;15.82;11.82;;;;;;;;;;5076151;28;20380;-68
2023/06/18 00:34:06;;;;;;;13.88;11.85;;;;;;;;;;5094207;28;20035;-67
2023/06/18 00:36:33;;;;;;;17.13;12.80;;;;;;;;;;5092225;28;20057;-67
2023/06/18 00:39:02;;;;;;;14.18;11.60;;;;;;;;;;5094052;28;20454;-69
2023/06/18 00:41:29;;;;;;;16.52;12.18;;;;;;;;;;5091832;28;20020;-69
2023/06/18 00:43:57;;;;;;;17.95;12.25;;;;;;;;;;5094187;28;20016;-70
2023/06/18 00:46:26;;;;;;;18.17;12.40;;;;;;;;;;5093529;28;20051;-68
2023/06/18 00:48:53;;;;;;;16.60;11.70;;;;;;;;;;5093793;28;20040;-72
2023/06/18 00:51:21;;;;;;;14.25;12.20;;;;;;;;;;5094086;28;20389;-70
2023/06/18 00:53:46;;;;;;;24.92;12.02;;;;;;;;;;5091032;28;20168;-68
2023/06/18 00:56:13;;;;;;;15.55;12.63;;;;;;;;;;5094076;28;20059;-70
2023/06/18 00:58:38;;;;;;;16.38;11.75;;;;;;;;;;5093813;28;20030;-67
2023/06/18 01:01:08;;;;;;;15.00;11.73;;;;;;;;;;5093785;28;20157;-72
2023/06/18 01:03:34;;;;;;;14.77;12.47;;;;;;;;;;5074605;28;20024;-70
2023/06/18 01:06:01;;;;;;;19.10;12.07;;;;;;;;;;5091344;28;20032;-70
2023/06/18 01:08:32;;;;;;;16.92;13.07;;;;;;;;;;5091969;28;20377;-66
2023/06/18 01:11:03;;;;;;;17.52;12.68;;;;;;;;;;5090436;28;20024;-70
2023/06/18 01:13:36;;;;;;;14.48;12.43;;;;;;;;;;5093013;28;20024;-70
2023/06/18 01:16:05;;;;;;;14.25;11.82;;;;;;;;;;5090773;28;20020;-72
2023/06/18 01:18:35;;;;;;;17.38;12.00;;;;;;;;;;5092461;28;20028;-72
2023/06/18 01:21:05;;;;;;;17.40;12.27;;;;;;;;;;5092580;28;20465;-67
2023/06/18 01:23:49;;;;;;;14.98;12.02;;;;;;;;;;5092479;28;20062;-70
2023/06/18 01:26:15;;;;;;;13.65;11.18;;;;;;;;;;5092528;28;20059;-67
2023/06/18 01:28:41;;;;;;;14.07;11.20;;;;;;;;;;5092451;28;20111;-74
2023/06/18 01:31:07;;;;;;;16.85;11.07;;;;;;;;;;5092217;28;20108;-73
2023/06/18 01:33:33;;;;;;;15.68;11.88;;;;;;;;;;5092307;28;20432;-68
2023/06/18 01:36:00;;;;;;;15.32;11.85;;;;;;;;;;5093733;28;20465;-68
2023/06/18 01:38:59;;;;;;;13.82;10.88;;;;;;;;;;5093415;28;20362;-73
2023/06/18 01:41:29;;;;;;;13.70;10.17;;;;;;;;;;5078853;28;20096;-75
2023/06/18 01:44:03;;;;;;;12.48;10.60;;;;;;;;;;5093642;28;20032;-73
2023/06/18 01:46:29;;;;;;;13.15;10.15;;;;;;;;;;5092995;28;20127;-67
2023/06/18 01:48:58;;;;;;;15.02;10.15;;;;;;;;;;5093572;28;20495;-71
2023/06/18 01:51:25;;;;;;;14.25;10.77;;;;;;;;;;5093431;28;20016;-71
2023/06/18 01:53:52;;;;;;;16.45;11.38;;;;;;;;;;5093568;28;20142;-74
2023/06/18 01:56:20;;;;;;;15.13;11.68;;;;;;;;;;5093424;28;20094;-73
2023/06/18 01:58:45;;;;;;;13.77;11.25;;;;;;;;;;5093302;28;20028;-71
2023/06/18 02:01:11;;;;;;;13.93;10.95;;;;;;;;;;5093208;28;20081;-74
2023/06/18 02:03:38;;;;;;;14.40;10.88;;;;;;;;;;5093299;28;20500;-69
2023/06/18 02:06:04;;;;;;;15.52;11.55;;;;;;;;;;5093154;28;20031;-72
2023/06/18 02:08:30;;;;;;;17.27;10.95;;;;;;;;;;5093249;28;20036;-68
2023/06/18 02:10:55;;;;;;;12.93;10.85;;;;;;;;;;5093120;28;20077;-71
2023/06/18 02:13:21;;;;;;;13.13;9.95;;;;;;;;;;5093303;28;20073;-67
2023/06/18 02:15:46;;;;;;;17.50;10.90;;;;;;;;;;5092928;28;20107;-67
2023/06/18 02:18:11;;;;;;;12.63;10.70;;;;;;;;;;5093044;28;20020;-74
2023/06/18 02:20:41;;;;;;;18.80;10.38;;;;;;;;;;5092737;28;20104;-71
2023/06/18 02:23:07;;;;;;;12.03;10.13;;;;;;;;;;5092715;28;20023;-70
2023/06/18 02:25:33;;;;;;;13.57;9.55;;;;;;;;;;5092881;28;20032;-71
2023/06/18 02:28:00;;;;;;;13.77;10.50;;;;;;;;;;5074716;28;20028;-70
2023/06/18 02:30:28;;;;;;;12.25;9.98;;;;;;;;;;5092621;28;20547;-68
2023/06/18 02:32:54;;;;;;;12.55;10.30;;;;;;;;;;5074757;28;20020;-66
2023/06/18 02:35:19;;;;;;;16.52;10.48;;;;;;;;;;5092737;28;20038;-66
2023/06/18 02:37:45;;;;;;;13.23;10.75;;;;;;;;;;5092633;28;20025;-71
2023/06/18 02:40:13;;;;;;;11.60;9.52;;;;;;;;;;5092471;28;20381;-71
2023/06/18 02:42:46;;;;;;;12.07;10.35;;;;;;;;;;5092747;28;20028;-67
2023/06/18 02:45:13;;;;;;;16.25;9.90;;;;;;;;;;5092420;28;20442;-66
2023/06/18 02:47:38;;;;;;;14.77;10.68;;;;;;;;;;5092824;28;20050;-72
2023/06/18 02:50:05;;;;;;;12.80;10.18;;;;;;;;;;5092643;28;20020;-68
2023/06/18 02:52:31;;;;;;;11.65;9.38;;;;;;;;;;5092598;28;20485;-70
2023/06/18 02:54:59;;;;;;;14.30;9.60;;;;;;;;;;5092608;28;20048;-71
2023/06/18 02:57:25;;;;;;;12.05;9.65;;;;;;;;;;5092369;28;20028;-71
2023/06/18 02:59:50;;;;;;;11.27;9.93;;;;;;;;;;5092546;28;20097;-71
2023/06/18 03:02:16;;;;;;;18.35;10.55;;;;;;;;;;5092524;28;20479;-69
2023/06/18 03:04:41;;;;;;;12.13;9.55;;;;;;;;;;5092416;28;20535;-67
2023/06/18 03:07:07;;;;;;;13.63;10.18;;;;;;;;;;5092196;28;20478;-66
2023/06/18 03:09:32;;;;;;;11.75;10.27;;;;;;;;;;5092155;28;20028;-67
2023/06/18 03:11:57;;;;;;;13.60;11.40;;;;;;;;;;5092024;28;20031;-72
2023/06/18 03:14:24;;;;;;;14.20;10.60;;;;;;;;;;5092471;28;20063;-68
2023/06/18 03:16:50;;;;;;;13.02;10.50;;;;;;;;;;5092481;28;20374;-67
2023/06/18 03:19:15;;;;;;;15.02;10.73;;;;;;;;;;5092278;28;20028;-72
2023/06/18 03:21:41;;;;;;;13.98;10.85;;;;;;;;;;5092370;28;20040;-73
2023/06/18 03:24:06;;;;;;;15.82;10.95;;;;;;;;;;5092301;28;20331;-71
2023/06/18 03:26:35;;;;;;;13.60;11.80;;;;;;;;;;5092045;28;20472;-72
2023/06/18 03:29:04;;;;;;;14.63;11.55;;;;;;;;;;5092376;28;20026;-72
2023/06/18 03:31:31;;;;;;;14.15;12.00;;;;;;;;;;5092241;28;20020;-74
2023/06/18 03:34:01;;;;;;;20.05;14.73;;;;;;;;;;5096139;28;20483;-70
2023/06/18 03:36:39;;;;;;;20.60;15.93;;;;;;;;;;5096030;28;20027;-71
2023/06/18 03:39:04;;;;;;;28.30;15.85;;;;;;;;;;5102084;28;20074;-67
2023/06/18 03:41:30;;;;;;;23.30;15.93;;;;;;;;;;5116103;28;20434;-74
2023/06/18 03:43:55;;;;;;;22.38;13.45;;;;;;;;;;5116351;28;20057;-73
2023/06/18 03:46:21;;;;;;;14.93;12.63;;;;;;;;;;5116109;28;20055;-69
2023/06/18 03:48:47;;;;;;;16.15;13.00;;;;;;;;;;5108421;28;20426;-69
2023/06/18 03:51:12;;;;;;;18.23;12.27;;;;;;;;;;5095862;28;20115;-73
2023/06/18 03:53:37;;;;;;;17.77;12.55;;;;;;;;;;5095888;28;20046;-66
2023/06/18 03:56:04;;;;;;;17.75;14.00;;;;;;;;;;5094287;28;20040;-67
2023/06/18 03:58:30;;;;;;;15.63;13.55;;;;;;;;;;5095644;28;20028;-67
2023/06/18 04:00:55;;;;;;;17.58;14.15;;;;;;;;;;5095566;28;20020;-69
2023/06/18 04:03:22;;;;;;;15.32;11.80;;;;;;;;;;5095662;28;20023;-67
2023/06/18 04:05:48;;;;;;;13.43;11.88;;;;;;;;;;5095410;28;20031;-69
2023/06/18 04:08:14;;;;;;;17.02;14.65;;;;;;;;;;5077371;28;20028;-69
2023/06/18 04:10:41;;;;;;;17.00;13.32;;;;;;;;;;5095102;28;20042;-73
2023/06/18 04:13:06;;;;;;;18.98;13.43;;;;;;;;;;5095267;28;20032;-68
2023/06/18 04:15:32;;;;;;;16.77;14.40;;;;;;;;;;5095324;28;20027;-73
2023/06/18 04:17:57;;;;;;;19.92;15.13;;;;;;;;;;5095156;28;20508;-67
2023/06/18 04:20:23;;;;;;;16.70;14.05;;;;;;;;;;5095131;28;20035;-68
2023/06/18 04:22:48;;;;;;;17.75;14.30;;;;;;;;;;5095174;28;20024;-70
2023/06/18 04:25:14;;;;;;;16.60;13.88;;;;;;;;;;5094625;28;20054;-67
2023/06/18 04:27:39;;;;;;;17.63;15.15;;;;;;;;;;5095156;28;20031;-69
2023/06/18 04:30:07;;;;;;;19.23;15.77;;;;;;;;;;5095063;28;20109;-70
2023/06/18 04:32:32;;;;;;;18.08;14.73;;;;;;;;;;5094915;28;20024;-70
2023/06/18 04:34:58;;;;;;;18.92;15.88;;;;;;;;;;5095041;28;20107;-67
2023/06/18 04:37:23;;;;;;;20.10;16.42;;;;;;;;;;5094812;28;20399;-72
2023/06/18 04:39:49;;;;;;;23.48;17.80;;;;;;;;;;5106956;28;20429;-71
2023/06/18 04:42:15;;;;;;;23.55;17.23;;;;;;;;;;5115332;28;20507;-69
2023/06/18 04:44:41;;;;;;;21.98;17.20;;;;;;;;;;5115047;28;20023;-68
2023/06/18 04:47:07;;;;;;;21.08;17.85;;;;;;;;;;5114895;28;20054;-70
2023/06/18 04:49:32;;;;;;;24.88;18.48;;;;;;;;;;5093267;28;20020;-69
2023/06/18 04:51:58;;;;;;;22.13;17.42;;;;;;;;;;5094492;28;20054;-68
2023/06/18 04:54:23;;;;;;;20.17;17.95;;;;;;;;;;5094473;28;20020;-69
2023/06/18 04:56:48;;;;;;;23.83;18.00;;;;;;;;;;5094633;28;20026;-68
2023/06/18 04:59:14;;;;;;;23.60;17.48;;;;;;;;;;5094525;28;20105;-68
2023/06/18 05:01:39;;;;;;;21.85;17.10;;;;;;;;;;5094429;28;20166;-66
2023/06/18 05:04:05;;;;;;;21.15;17.52;;;;;;;;;;5094493;28;20488;-72
2023/06/18 05:06:31;;;;;;;26.80;19.30;;;;;;;;;;5094335;28;20035;-68
2023/06/18 05:08:56;;;;;;;26.17;19.17;;;;;;;;;;5094179;28;20510;-67
2023/06/18 05:11:22;;;;;;;22.58;17.08;;;;;;;;;;5094092;28;20032;-71
2023/06/18 05:13:47;;;;;;;21.77;16.73;;;;;;;;;;5094147;28;20385;-73
2023/06/18 05:16:12;;;;;;;21.73;16.60;;;;;;;;;;5094224;28;20525;-74
2023/06/18 05:18:38;;;;;;;20.45;16.48;;;;;;;;;;5075587;28;20099;-74
2023/06/18 05:21:04;;;;;;;20.08;15.02;;;;;;;;;;5094178;28;20082;-74
2023/06/18 05:23:30;;;;;;;19.17;16.05;;;;;;;;;;5093969;28;20032;-73
2023/06/18 05:25:55;;;;;;;19.75;16.98;;;;;;;;;;5093840;28;20107;-75
2023/06/18 05:28:21;;;;;;;20.83;15.43;;;;;;;;;;5093913;28;20028;-73
2023/06/18 05:30:46;;;;;;;20.30;15.25;;;;;;;;;;5094034;28;20016;-73
2023/06/18 05:33:12;;;;;;;23.25;15.68;;;;;;;;;;5093874;28;20150;-74
2023/06/18 05:35:38;;;;;;;21.58;15.80;;;;;;;;;;5093800;28;20036;-74
2023/06/18 05:38:03;;;;;;;22.85;16.55;;;;;;;;;;5093367;28;20039;-74
2023/06/18 05:40:29;;;;;;;22.73;16.33;;;;;;;;;;5111718;28;20084;-74
2023/06/18 05:42:54;;;;;;;22.25;15.35;;;;;;;;;;5114156;28;20115;-74
2023/06/18 05:45:19;;;;;;;19.50;14.85;;;;;;;;;;5095543;28;20553;-74
2023/06/18 05:47:45;;;;;;;19.15;14.77;;;;;;;;;;5113931;28;20053;-73
2023/06/18 05:50:11;;;;;;;16.52;14.15;;;;;;;;;;5104254;28;20107;-73
2023/06/18 05:52:36;;;;;;;19.52;14.40;;;;;;;;;;5093389;28;20035;-73
2023/06/18 05:55:02;;;;;;;17.10;14.70;;;;;;;;;;5093053;28;20461;-74
2023/06/18 05:57:27;;;;;;;17.38;13.60;;;;;;;;;;5093509;28;20028;-74
2023/06/18 05:59:53;;;;;;;15.32;13.73;;;;;;;;;;5093338;28;20016;-73
2023/06/18 06:02:18;;;;;;;15.40;13.80;;;;;;;;;;5093418;28;20480;-69
2023/06/18 06:04:43;;;;;;;17.52;14.00;;;;;;;;;;5093358;28;20024;-70
2023/06/18 06:07:10;;;;;;;16.30;13.38;;;;;;;;;;5092996;28;20114;-72
2023/06/18 06:09:35;;;;;;;16.15;13.43;;;;;;;;;;5093191;28;20021;-74
2023/06/18 06:12:01;;;;;;;19.17;13.77;;;;;;;;;;5093155;28;20077;-72
2023/06/18 06:14:26;;;;;;;16.48;12.70;;;;;;;;;;5093062;28;20154;-73
2023/06/18 06:16:57;;;;;;;17.50;12.82;;;;;;;;;;5093124;28;20028;-68
2023/06/18 06:19:22;;;;;;;18.42;14.45;;;;;;;;;;5093085;28;20067;-70
2023/06/18 06:21:48;;;;;;;16.27;13.20;;;;;;;;;;5092911;28;20473;-75
2023/06/18 06:24:15;;;;;;;17.33;13.93;;;;;;;;;;5092997;28;20389;-70
2023/06/18 06:26:41;;;;;;;17.35;13.65;;;;;;;;;;5092699;28;20034;-74
2023/06/18 06:29:06;;;;;;;18.42;14.27;;;;;;;;;;5092992;28;20483;-70
2023/06/18 06:31:32;;;;;;;18.73;13.57;;;;;;;;;;5093054;28;20035;-71
2023/06/18 06:33:57;;;;;;;19.42;14.90;;;;;;;;;;5093014;28;20024;-71
2023/06/18 06:36:23;;;;;;;16.50;14.00;;;;;;;;;;5092660;28;20016;-72
2023/06/18 06:38:49;;;;;;;18.20;12.88;;;;;;;;;;5096879;28;20024;-74
2023/06/18 06:41:14;;;;;;;17.42;13.85;;;;;;;;;;5094942;28;20114;-75
2023/06/18 06:43:40;;;;;;;17.13;13.70;;;;;;;;;;5113170;28;20030;-70
2023/06/18 06:46:05;;;;;;;16.13;12.18;;;;;;;;;;5112859;28;20439;-72
2023/06/18 06:48:31;;;;;;;19.63;13.20;;;;;;;;;;5113176;28;20020;-71
2023/06/18 06:50:57;;;;;;;17.45;13.30;;;;;;;;;;5106104;28;20028;-73
2023/06/18 06:53:22;;;;;;;12.38;10.40;;;;;;;;;;5092657;28;20020;-70
2023/06/18 06:55:48;;;;;;;15.23;12.30;;;;;;;;;;5092652;28;20024;-75
2023/06/18 06:58:13;;;;;;;13.82;11.93;;;;;;;;;;5092708;28;20035;-74
2023/06/18 07:00:39;;;;;;;14.75;13.13;;;;;;;;;;5092617;28;20061;-68
2023/06/18 07:03:05;;;;;;;18.20;13.50;;;;;;;;;;5092524;28;20385;-68
2023/06/18 07:05:30;;;;;;;15.65;13.63;;;;;;;;;;5092314;28;20028;-68
2023/06/18 07:07:59;;;;;;;16.73;13.70;;;;;;;;;;5095093;28;20024;-71
2023/06/18 07:10:25;;;;;;;17.85;12.48;;;;;;;;;;5096773;28;20433;-73
2023/06/18 07:12:50;;;;;;;14.50;12.50;;;;;;;;;;5096682;28;20074;-67
2023/06/18 07:15:16;;;;;;;12.88;11.48;;;;;;;;;;5096597;28;20050;-74
2023/06/18 07:17:42;;;;;;;12.90;11.23;;;;;;;;;;5096473;28;20065;-67
2023/06/18 07:20:07;;;;;;;16.73;11.52;;;;;;;;;;5096036;28;20395;-70
2023/06/18 07:22:33;;;;;;;11.13;9.50;;;;;;;;;;5096471;28;20028;-69
2023/06/18 07:24:58;;;;;;;11.98;9.63;;;;;;;;;;5096337;28;20458;-67
2023/06/18 07:27:24;;;;;;;10.77;9.15;;;;;;;;;;5096311;28;20028;-74
2023/06/18 07:29:50;;;;;;;12.48;9.98;;;;;;;;;;5096267;28;20056;-73
2023/06/18 07:32:16;;;;;;;12.80;10.73;;;;;;;;;;5078115;28;20436;-73
2023/06/18 07:34:42;;;;;;;9.57;7.72;;;;;;;;;;5096023;28;20064;-71
2023/06/18 07:37:07;;;;;;;10.50;8.00;;;;;;;;;;5095930;28;20377;-74
2023/06/18 07:39:32;;;;;;;12.27;9.73;;;;;;;;;;5106372;28;20027;-73
2023/06/18 07:41:58;;;;;;;10.43;7.93;;;;;;;;;;5100030;28;20096;-73
2023/06/18 07:44:23;;;;;;;12.77;7.88;;;;;;;;;;5095466;28;20518;-74
2023/06/18 07:46:50;;;;;;;9.63;7.80;;;;;;;;;;5095291;28;20581;-73
2023/06/18 07:49:16;;;;;;;11.25;7.93;;;;;;;;;;5095155;28;20106;-72
2023/06/18 07:51:42;;;;;;;11.27;8.30;;;;;;;;;;5093006;28;20076;-72
2023/06/18 07:54:08;;;;;;;9.43;7.78;;;;;;;;;;5095205;28;20020;-74
2023/06/18 07:56:33;;;;;;;11.60;8.38;;;;;;;;;;5095195;28;20378;-74
2023/06/18 07:59:01;;;;;;;11.88;8.57;;;;;;;;;;5095307;28;20089;-74
2023/06/18 08:01:27;;;;;;;10.02;7.43;;;;;;;;;;5077198;28;20428;-73
2023/06/18 08:03:53;;;;;;;11.13;8.43;;;;;;;;;;5094754;28;20028;-74
2023/06/18 08:06:18;;;;;;;10.27;7.05;;;;;;;;;;5095047;28;20028;-73
2023/06/18 08:08:46;;;;;;;9.32;7.50;;;;;;;;;;5094992;28;20103;-75
2023/06/18 08:11:12;;;;;;;10.02;7.43;;;;;;;;;;5076434;28;20026;-69
2023/06/18 08:13:37;;;;;;;8.27;6.70;;;;;;;;;;5094679;28;20377;-75
2023/06/18 08:16:03;;;;;;;10.00;7.35;;;;;;;;;;5094756;28;20023;-74
2023/06/18 08:18:28;;;;;;;11.20;7.53;;;;;;;;;;5093911;28;20078;-75
2023/06/18 08:20:55;;;;;;;10.43;7.03;;;;;;;;;;5094864;28;20080;-72
2023/06/18 08:23:20;;;;;;;7.13;6.30;;;;;;;;;;5091831;28;20028;-72
2023/06/18 08:25:46;;;;;;;9.15;7.20;;;;;;;;;;5094120;28;20427;-75
2023/06/18 08:28:11;;;;;;;10.32;8.15;;;;;;;;;;5094871;28;20076;-74
2023/06/18 08:30:36;;;;;;;13.38;8.98;;;;;;;;;;5094815;28;20376;-73
2023/06/18 08:33:02;;;;;;;13.23;7.05;;;;;;;;;;5094650;28;20099;-72
2023/06/18 08:35:27;;;;;;;11.02;7.30;;;;;;;;;;5095642;28;20036;-70
2023/06/18 08:37:53;;;;;;;12.25;7.57;;;;;;;;;;5096248;28;20393;-73
2023/06/18 08:40:22;;;;;;;8.57;6.72;;;;;;;;;;5096037;28;20377;-70
2023/06/18 08:42:48;;;;;;;8.05;5.93;;;;;;;;;;5096329;28;20016;-74
2023/06/18 08:45:14;;;;;;;8.48;6.72;;;;;;;;;;5096070;28;20070;-75
2023/06/18 08:47:41;;;;;;;7.95;6.15;;;;;;;;;;5105019;28;20038;-75
2023/06/18 08:50:07;;;;;;;8.43;5.72;;;;;;;;;;5094925;28;20031;-73
2023/06/18 08:52:34;;;;;;;9.85;6.47;;;;;;;;;;5099511;28;20024;-71
2023/06/18 08:55:07;;;;;;;7.72;6.05;;;;;;;;;;5106250;28;20059;-73
2023/06/18 08:57:43;;;;;;;8.05;6.10;;;;;;;;;;5106898;28;20084;-71
2023/06/18 09:00:09;;;;;;;8.93;6.07;;;;;;;;;;5094759;28;20428;-67
2023/06/18 09:02:35;;;;;;;9.98;5.93;;;;;;;;;;5087301;28;20032;-68
2023/06/18 09:05:05;;;;;;;6.45;5.25;;;;;;;;;;5093926;28;20419;-69
2023/06/18 09:07:31;;;;;;;8.00;5.68;;;;;;;;;;5104857;28;20485;-69
2023/06/18 09:09:57;;;;;;;8.38;5.53;;;;;;;;;;5094184;28;20114;-70
2023/06/18 09:12:23;;;;;;;12.18;6.40;;;;;;;;;;5094155;28;20048;-68
2023/06/18 09:14:48;;;;;;;7.47;6.18;;;;;;;;;;5093816;28;20362;-68
2023/06/18 09:17:15;;;;;;;8.82;5.60;;;;;;;;;;5094028;28;20054;-68
2023/06/18 09:19:41;;;;;;;8.07;6.53;;;;;;;;;;5093574;28;20103;-68
2023/06/18 09:22:17;;;;;;;9.60;6.00;;;;;;;;;;5093955;28;20109;-68
2023/06/18 09:24:43;;;;;;;7.10;6.00;;;;;;;;;;5093813;28;20465;-69
2023/06/18 09:27:09;;;;;;;9.68;5.20;;;;;;;;;;5093547;28;20024;-68
2023/06/18 09:29:36;;;;;;;11.77;5.13;;;;;;;;;;5092591;28;20052;-67
2023/06/18 09:32:10;;;;;;;7.63;4.93;;;;;;;;;;5093512;28;20050;-68
2023/06/18 09:34:36;;;;;;;8.52;5.32;;;;;;;;;;5093599;28;20120;-68
2023/06/18 09:37:03;;;;;;;8.63;4.85;;;;;;;;;;5093575;28;20412;-68
2023/06/18 09:39:31;;;;;;;6.78;5.38;;;;;;;;;;5093350;28;20032;-68
2023/06/18 09:42:05;;;;;;;7.35;4.90;;;;;;;;;;5093553;28;20028;-67
2023/06/18 09:44:30;;;;;;;8.02;4.93;;;;;;;;;;5093041;28;20028;-67
2023/06/18 09:46:57;;;;;;;9.43;5.75;;;;;;;;;;5092996;28;20370;-68
2023/06/18 09:49:24;;;;;;;9.32;5.95;;;;;;;;;;5093316;28;20036;-68
2023/06/18 09:51:50;;;;;;;7.95;5.25;;;;;;;;;;5093275;28;20071;-67
2023/06/18 09:54:16;;;;;;;8.80;5.85;;;;;;;;;;5092847;28;20035;-68
2023/06/18 09:57:02;;;;;;;9.80;6.40;;;;;;;;;;5094109;28;20031;-69
2023/06/18 09:59:28;;;;;;;7.97;5.50;;;;;;;;;;5093672;28;20035;-68
2023/06/18 10:01:55;;;;;;;7.85;6.05;;;;;;;;;;5074209;28;20156;-68
2023/06/18 10:04:21;;;;;;;9.48;5.80;;;;;;;;;;5092172;28;20016;-68
2023/06/18 10:06:50;;;;;;;6.30;5.55;;;;;;;;;;5091823;28;20074;-69
2023/06/18 10:09:16;;;;;;;8.10;5.25;;;;;;;;;;5092438;28;20470;-68
2023/06/18 10:11:44;;;;;;;7.25;5.60;;;;;;;;;;5092427;28;20012;-69
2023/06/18 10:14:13;;;;;;;6.32;4.80;;;;;;;;;;5092258;28;20028;-69
2023/06/18 10:16:45;;;;;;;6.93;5.30;;;;;;;;;;5092788;28;20458;-69
2023/06/18 10:19:29;;;;;;;7.55;5.07;;;;;;;;;;5092840;28;20272;-69
2023/06/18 10:21:57;;;;;;;8.80;5.10;;;;;;;;;;5093041;28;20436;-68
2023/06/18 10:24:46;;;;;;;6.97;4.60;;;;;;;;;;5092814;28;20103;-69
2023/06/18 10:27:13;;;;;;;6.75;4.85;;;;;;;;;;5059989;28;20040;-69
2023/06/18 10:29:39;;;;;;;5.82;4.72;;;;;;;;;;5092647;28;20032;-69
2023/06/18 10:32:05;;;;;;;5.57;5.00;;;;;;;;;;5092756;28;20591;-68
2023/06/18 10:34:31;;;;;;;5.70;4.50;;;;;;;;;;5092709;28;20469;-68
2023/06/18 10:36:58;;;;;;;7.97;4.80;;;;;;;;;;5092630;28;20043;-69
2023/06/18 10:39:25;;;;;;;9.13;4.75;;;;;;;;;;5101426;28;20111;-67
2023/06/18 10:41:54;;;;;;;6.05;4.72;;;;;;;;;;5112696;28;20030;-69
2023/06/18 10:44:49;;;;;;;;;;;;;;;;;;5113369;28;20076;-71
2023/06/18 10:47:28;;;;;;;9.60;5.15;;;;;;;;;;5112633;28;19951;-70
2023/06/18 10:50:02;;;;;;;7.50;4.55;;;;;;;;;;5112830;28;20027;-70
2023/06/18 10:52:45;;;;;;;5.75;4.22;;;;;;;;;;5112667;28;20034;-69
2023/06/18 10:55:10;;;;;;;6.22;3.85;;;;;;;;;;5097806;28;20078;-69
2023/06/18 10:57:46;;;;;;;7.85;4.18;;;;;;;;;;5092183;28;20024;-69
2023/06/18 11:00:31;;;;;;;7.43;4.07;;;;;;;;;;5092440;28;20032;-68
2023/06/18 11:02:59;;;;;;;4.20;3.38;;;;;;;;;;5092210;28;20020;-70
2023/06/18 11:05:36;;;;;;;4.82;4.05;;;;;;;;;;5091865;28;20028;-67
2023/06/18 11:08:07;;;;;;;4.38;3.60;;;;;;;;;;5092359;28;20031;-67
2023/06/18 11:10:45;;;;;;;5.25;4.00;;;;;;;;;;5091959;28;20107;-68
2023/06/18 11:13:11;;;;;;;5.68;3.90;;;;;;;;;;5092109;28;20032;-69
2023/06/18 11:16:05;;;;;;;4.32;3.63;;;;;;;;;;5092222;28;20039;-67
2023/06/18 11:18:31;;;;;;;6.75;4.25;;;;;;;;;;5082506;28;20040;-66
2023/06/18 11:20:58;;;;;;;6.43;4.10;;;;;;;;;;5092163;28;20024;-69
2023/06/18 11:23:24;;;;;;;5.47;3.90;;;;;;;;;;5091984;28;20028;-70
2023/06/18 11:25:50;;;;;;;8.13;4.47;;;;;;;;;;5091920;28;20028;-68
2023/06/18 11:28:16;;;;;;;11.07;4.65;;;;;;;;;;5091398;28;20039;-70
2023/06/18 11:30:51;;;;;;;21.33;5.43;;;;;;;;;;5090997;28;20095;-70
2023/06/18 11:33:27;;;;;;;7.32;4.95;;;;;;;;;;5089261;28;20128;-69
2023/06/18 11:35:54;;;;;;;7.80;5.20;;;;;;;;;;5088743;28;20031;-69
2023/06/18 11:38:21;;;;;;;22.10;6.28;;;;;;;;;;5091192;28;20449;-69
2023/06/18 11:40:51;;;;;;;12.43;5.93;;;;;;;;;;5091691;28;20028;-68
2023/06/18 11:43:18;;;;;;;18.42;10.02;;;;;;;;;;5089239;28;20066;-68
2023/06/18 11:45:48;;;;;;;14.88;6.45;;;;;;;;;;5091128;28;20043;-68
2023/06/18 11:48:16;;;;;;;9.90;6.07;;;;;;;;;;5091871;28;20431;-69
2023/06/18 11:50:41;;;;;;;9.10;5.93;;;;;;;;;;5091127;28;20167;-68
2023/06/18 11:53:07;;;;;;;9.27;6.30;;;;;;;;;;5092148;28;20128;-68
2023/06/18 11:55:36;;;;;;;11.60;6.55;;;;;;;;;;5094429;28;20062;-68
2023/06/18 11:58:02;;;;;;;9.02;6.45;;;;;;;;;;5075010;28;20108;-69
2023/06/18 12:00:27;;;;;;;12.13;7.38;;;;;;;;;;5085627;28;20487;-68
2023/06/18 12:02:53;;;;;;;12.80;7.43;;;;;;;;;;5101776;28;20520;-67
2023/06/18 12:05:19;;;;;;;11.60;7.50;;;;;;;;;;5095377;28;20028;-66
2023/06/18 12:07:45;;;;;;;10.65;7.38;;;;;;;;;;5115438;28;20106;-67
2023/06/18 12:10:12;;;;;;;9.18;7.05;;;;;;;;;;5115181;28;20503;-68
2023/06/18 12:12:49;;;;;;;8.55;7.18;;;;;;;;;;5115192;28;20051;-67
2023/06/18 12:15:38;;;;;;;11.60;7.80;;;;;;;;;;5115231;28;20067;-66
2023/06/18 12:18:04;;;;;;;10.98;7.68;;;;;;;;;;5115250;28;20024;-65
2023/06/18 12:20:29;;;;;;;12.25;8.45;;;;;;;;;;5114875;28;20038;-66
2023/06/18 12:23:00;;;;;;;12.90;7.50;;;;;;;;;;5115156;28;20350;-67
2023/06/18 12:25:30;;;;;;;8.45;6.70;;;;;;;;;;5115185;28;20063;-67
2023/06/18 12:27:58;;;;;;;9.57;6.78;;;;;;;;;;5115178;28;20066;-68
2023/06/18 12:30:28;;;;;;;8.10;6.68;;;;;;;;;;5100894;28;20055;-66
2023/06/18 12:33:10;;;;;;;15.73;7.47;;;;;;;;;;5094777;28;20028;-66
2023/06/18 12:35:37;;;;;;;8.98;6.15;;;;;;;;;;5094698;28;20027;-66
2023/06/18 12:38:10;;;;;;;7.80;6.10;;;;;;;;;;5094290;28;20055;-66
2023/06/18 12:40:49;;;;;;;8.05;5.63;;;;;;;;;;5112995;28;20338;-67
2023/06/18 12:43:18;;;;;;;9.85;5.53;;;;;;;;;;5114987;28;20027;-66
2023/06/18 12:45:46;;;;;;;8.32;5.38;;;;;;;;;;5114675;28;20036;-67
2023/06/18 12:48:15;;;;;;;5.63;5.03;;;;;;;;;;5114913;28;20487;-67
2023/06/18 12:50:46;;;;;;;6.05;4.93;;;;;;;;;;5114374;28;20499;-67
2023/06/18 12:53:25;;;;;;;8.10;5.05;;;;;;;;;;5114416;28;20055;-67
2023/06/18 12:55:53;;;;;;;6.35;4.90;;;;;;;;;;5101864;28;20495;-70
2023/06/18 12:58:23;;;;;;;7.00;5.22;;;;;;;;;;5094709;28;20489;-71
2023/06/18 13:00:50;;;;;;;6.55;5.38;;;;;;;;;;5094364;28;20023;-68
2023/06/18 13:03:16;;;;;;;6.63;5.55;;;;;;;;;;5094034;28;20492;-67
2023/06/18 13:05:43;;;;;;;7.60;5.50;;;;;;;;;;5093838;28;20019;-70
2023/06/18 13:08:19;;;;;;;8.38;5.70;;;;;;;;;;5075759;28;20020;-69
2023/06/18 13:10:46;;;;;;;10.23;5.97;;;;;;;;;;5093893;28;20031;-70
2023/06/18 13:13:12;;;;;;;8.80;6.00;;;;;;;;;;5093951;28;20036;-75
2023/06/18 13:15:37;;;;;;;9.18;5.80;;;;;;;;;;5093567;28;20047;-75
2023/06/18 13:18:03;;;;;;;10.13;5.25;;;;;;;;;;5093886;28;20410;-75
2023/06/18 13:20:29;;;;;;;7.72;5.70;;;;;;;;;;5092823;28;20042;-75
2023/06/18 13:22:55;;;;;;;8.90;5.45;;;;;;;;;;5092448;28;20024;-74
2023/06/18 13:25:21;;;;;;;6.95;5.47;;;;;;;;;;5092441;28;20115;-71
2023/06/18 13:27:47;;;;;;;8.40;6.05;;;;;;;;;;5092352;28;20517;-70
2023/06/18 13:30:12;;;;;;;6.15;4.90;;;;;;;;;;5092232;28;20525;-69
2023/06/18 13:32:38;;;;;;;10.00;5.45;;;;;;;;;;5092238;28;20099;-67
2023/06/18 13:35:04;;;;;;;6.85;5.47;;;;;;;;;;5092258;28;20051;-75
2023/06/18 13:37:29;;;;;;;6.53;5.03;;;;;;;;;;5091546;28;20042;-73
2023/06/18 13:39:55;;;;;;;7.57;5.20;;;;;;;;;;5104702;28;20475;-75
2023/06/18 13:42:22;;;;;;;9.82;4.40;;;;;;;;;;5111724;28;20035;-74
2023/06/18 13:44:48;;;;;;;6.90;4.85;;;;;;;;;;5111650;28;20116;-75
2023/06/18 13:47:13;;;;;;;5.75;4.18;;;;;;;;;;5112171;28;20130;-75
2023/06/18 13:49:39;;;;;;;7.55;4.68;;;;;;;;;;5112816;28;20077;-74
2023/06/18 13:52:06;;;;;;;5.97;4.40;;;;;;;;;;5113527;28;20028;-74
2023/06/18 13:54:31;;;;;;;5.50;3.78;;;;;;;;;;5095709;28;20031;-73
2023/06/18 13:56:57;;;;;;;4.82;3.85;;;;;;;;;;5103278;28;20031;-70
2023/06/18 13:59:23;;;;;;;7.90;4.00;;;;;;;;;;5093376;28;20032;-68
2023/06/18 14:01:50;;;;;;;5.20;3.70;;;;;;;;;;5093353;28;20562;-71
2023/06/18 14:04:16;;;;;;;5.82;3.80;;;;;;;;;;5093208;28;20105;-73
2023/06/18 14:06:41;;;;;;;5.35;4.30;;;;;;;;;;5092950;28;20039;-70
2023/06/18 14:09:08;;;;;;;5.55;3.92;;;;;;;;;;5093261;28;20032;-68
2023/06/18 14:11:34;;;;;;;5.60;3.72;;;;;;;;;;5093176;28;20039;-74
2023/06/18 14:13:59;;;;;;;6.03;4.03;;;;;;;;;;5093151;28;20375;-74
2023/06/18 14:16:25;;;;;;;5.20;3.85;;;;;;;;;;5092583;28;20026;-66
2023/06/18 14:18:51;;;;;;;5.38;3.80;;;;;;;;;;5092903;28;20038;-72
2023/06/18 14:21:17;;;;;;;6.07;3.92;;;;;;;;;;5093080;28;20095;-70
2023/06/18 14:23:45;;;;;;;6.60;3.75;;;;;;;;;;5092746;28;20020;-73
2023/06/18 14:26:11;;;;;;;5.30;3.70;;;;;;;;;;5092931;28;20050;-67
2023/06/18 14:28:40;;;;;;;5.75;3.75;;;;;;;;;;5092867;28;20462;-68
2023/06/18 14:31:05;;;;;;;6.10;3.72;;;;;;;;;;5092799;28;20473;-70